sensor_id;sensor_type;location;lat;lon;timestamp;temperature;humidity
81895;DHT22;71358;45.642;13.758;2023-08-12T00:01:41;26.80;59.20
81895;DHT22;71358;45.642;13.758;2023-08-12T00:04:25;26.80;59.10
81895;DHT22;71358;45.642;13.758;2023-08-12T00:07:09;26.80;59.00
81895;DHT22;71358;45.642;13.758;2023-08-12T00:09:54;26.80;59.00
81895;DHT22;71358;45.642;13.758;2023-08-12T00:12:40;26.80;59.00
81895;DHT22;71358;45.642;13.758;2023-08-12T00:15:25;26.80;59.00
81895;DHT22;71358;45.642;13.758;2023-08-12T00:18:09;26.80;58.90
81895;DHT22;71358;45.642;13.758;2023-08-12T00:20:54;26.80;59.00
81895;DHT22;71358;45.642;13.758;2023-08-12T00:23:40;26.80;58.90
81895;DHT22;71358;45.642;13.758;2023-08-12T00:26:24;26.80;58.90
81895;DHT22;71358;45.642;13.758;2023-08-12T00:29:09;26.70;58.80
81895;DHT22;71358;45.642;13.758;2023-08-12T00:31:54;26.70;58.80
81895;DHT22;71358;45.642;13.758;2023-08-12T00:34:39;26.70;58.70
81895;DHT22;71358;45.642;13.758;2023-08-12T00:37:24;26.70;58.70
81895;DHT22;71358;45.642;13.758;2023-08-12T00:40:09;26.70;58.60
81895;DHT22;71358;45.642;13.758;2023-08-12T00:42:53;26.70;58.60
81895;DHT22;71358;45.642;13.758;2023-08-12T00:45:38;26.70;58.50
81895;DHT22;71358;45.642;13.758;2023-08-12T00:48:23;26.70;58.50
81895;DHT22;71358;45.642;13.758;2023-08-12T00:51:08;26.70;58.50
81895;DHT22;71358;45.642;13.758;2023-08-12T00:53:52;26.70;58.60
81895;DHT22;71358;45.642;13.758;2023-08-12T00:56:38;26.70;58.60
81895;DHT22;71358;45.642;13.758;2023-08-12T00:59:23;26.70;58.60
81895;DHT22;71358;45.642;13.758;2023-08-12T01:02:09;26.70;58.60
81895;DHT22;71358;45.642;13.758;2023-08-12T01:04:53;26.70;58.70
81895;DHT22;71358;45.642;13.758;2023-08-12T01:07:38;26.70;58.70
81895;DHT22;71358;45.642;13.758;2023-08-12T01:10:25;26.70;58.70
81895;DHT22;71358;45.642;13.758;2023-08-12T01:13:37;26.70;58.80
81895;DHT22;71358;45.642;13.758;2023-08-12T01:16:28;26.70;58.80
81895;DHT22;71358;45.642;13.758;2023-08-12T01:19:33;26.70;58.90
81895;DHT22;71358;45.642;13.758;2023-08-12T01:22:21;26.70;59.00
81895;DHT22;71358;45.642;13.758;2023-08-12T01:25:08;26.60;59.00
81895;DHT22;71358;45.642;13.758;2023-08-12T01:27:52;26.60;59.00
81895;DHT22;71358;45.642;13.758;2023-08-12T01:33:49;26.60;59.00
81895;DHT22;71358;45.642;13.758;2023-08-12T01:36:36;26.60;58.90
81895;DHT22;71358;45.642;13.758;2023-08-12T01:39:23;26.60;58.90
81895;DHT22;71358;45.642;13.758;2023-08-12T01:42:08;26.60;58.80
81895;DHT22;71358;45.642;13.758;2023-08-12T01:44:53;26.60;58.80
81895;DHT22;71358;45.642;13.758;2023-08-12T01:47:37;26.60;58.70
81895;DHT22;71358;45.642;13.758;2023-08-12T01:50:22;26.60;58.70
81895;DHT22;71358;45.642;13.758;2023-08-12T01:53:06;26.60;58.60
81895;DHT22;71358;45.642;13.758;2023-08-12T01:55:52;26.60;58.60
81895;DHT22;71358;45.642;13.758;2023-08-12T01:58:37;26.60;58.60
81895;DHT22;71358;45.642;13.758;2023-08-12T02:01:21;26.60;58.70
81895;DHT22;71358;45.642;13.758;2023-08-12T02:04:06;26.60;58.70
81895;DHT22;71358;45.642;13.758;2023-08-12T02:06:50;26.60;58.70
81895;DHT22;71358;45.642;13.758;2023-08-12T02:09:35;26.60;58.80
81895;DHT22;71358;45.642;13.758;2023-08-12T02:12:19;26.60;58.80
81895;DHT22;71358;45.642;13.758;2023-08-12T02:15:04;26.60;58.80
81895;DHT22;71358;45.642;13.758;2023-08-12T02:17:49;26.60;58.90
81895;DHT22;71358;45.642;13.758;2023-08-12T02:20:33;26.60;59.00
81895;DHT22;71358;45.642;13.758;2023-08-12T02:23:19;26.60;59.00
81895;DHT22;71358;45.642;13.758;2023-08-12T02:26:04;26.60;58.90
81895;DHT22;71358;45.642;13.758;2023-08-12T02:28:48;26.60;58.80
81895;DHT22;71358;45.642;13.758;2023-08-12T02:31:34;26.60;58.80
81895;DHT22;71358;45.642;13.758;2023-08-12T02:34:18;26.50;58.70
81895;DHT22;71358;45.642;13.758;2023-08-12T02:37:03;26.50;58.70
81895;DHT22;71358;45.642;13.758;2023-08-12T02:39:47;26.50;58.70
81895;DHT22;71358;45.642;13.758;2023-08-12T02:42:32;26.50;58.70
81895;DHT22;71358;45.642;13.758;2023-08-12T02:45:17;26.50;58.60
81895;DHT22;71358;45.642;13.758;2023-08-12T02:48:01;26.50;58.50
81895;DHT22;71358;45.642;13.758;2023-08-12T02:50:46;26.50;58.40
81895;DHT22;71358;45.642;13.758;2023-08-12T02:53:30;26.50;58.20
81895;DHT22;71358;45.642;13.758;2023-08-12T02:56:15;26.50;58.00
81895;DHT22;71358;45.642;13.758;2023-08-12T02:59:00;26.50;57.80
81895;DHT22;71358;45.642;13.758;2023-08-12T03:01:44;26.50;57.70
81895;DHT22;71358;45.642;13.758;2023-08-12T03:04:29;26.50;57.60
81895;DHT22;71358;45.642;13.758;2023-08-12T03:07:13;26.50;57.40
81895;DHT22;71358;45.642;13.758;2023-08-12T03:09:58;26.50;57.40
81895;DHT22;71358;45.642;13.758;2023-08-12T03:12:43;26.50;57.40
81895;DHT22;71358;45.642;13.758;2023-08-12T03:15:28;26.50;57.40
81895;DHT22;71358;45.642;13.758;2023-08-12T03:18:14;26.50;57.40
81895;DHT22;71358;45.642;13.758;2023-08-12T03:20:59;26.50;57.40
81895;DHT22;71358;45.642;13.758;2023-08-12T03:23:45;26.50;57.40
81895;DHT22;71358;45.642;13.758;2023-08-12T03:26:29;26.50;57.30
81895;DHT22;71358;45.642;13.758;2023-08-12T03:29:16;26.50;57.30
81895;DHT22;71358;45.642;13.758;2023-08-12T03:32:01;26.40;57.10
81895;DHT22;71358;45.642;13.758;2023-08-12T03:34:45;26.50;57.20
81895;DHT22;71358;45.642;13.758;2023-08-12T03:37:30;26.40;57.10
81895;DHT22;71358;45.642;13.758;2023-08-12T03:40:15;26.40;57.10
81895;DHT22;71358;45.642;13.758;2023-08-12T03:43:00;26.40;57.20
81895;DHT22;71358;45.642;13.758;2023-08-12T03:45:45;26.50;57.30
81895;DHT22;71358;45.642;13.758;2023-08-12T03:48:32;26.40;57.30
81895;DHT22;71358;45.642;13.758;2023-08-12T03:51:17;26.50;57.30
81895;DHT22;71358;45.642;13.758;2023-08-12T03:54:02;26.40;57.30
81895;DHT22;71358;45.642;13.758;2023-08-12T03:56:48;26.40;57.20
81895;DHT22;71358;45.642;13.758;2023-08-12T03:59:32;26.40;57.20
81895;DHT22;71358;45.642;13.758;2023-08-12T04:02:17;26.40;57.10
81895;DHT22;71358;45.642;13.758;2023-08-12T04:05:02;26.40;57.10
81895;DHT22;71358;45.642;13.758;2023-08-12T04:07:47;26.40;57.10
81895;DHT22;71358;45.642;13.758;2023-08-12T04:10:32;26.40;57.20
81895;DHT22;71358;45.642;13.758;2023-08-12T04:13:17;26.40;57.90
81895;DHT22;71358;45.642;13.758;2023-08-12T04:16:01;26.40;57.20
81895;DHT22;71358;45.642;13.758;2023-08-12T04:18:46;26.40;57.20
81895;DHT22;71358;45.642;13.758;2023-08-12T04:21:30;26.40;57.30
81895;DHT22;71358;45.642;13.758;2023-08-12T04:24:15;26.40;57.40
81895;DHT22;71358;45.642;13.758;2023-08-12T04:27:00;26.40;57.40
81895;DHT22;71358;45.642;13.758;2023-08-12T04:29:46;26.40;57.40
81895;DHT22;71358;45.642;13.758;2023-08-12T04:32:31;26.40;57.50
81895;DHT22;71358;45.642;13.758;2023-08-12T04:35:15;26.40;57.50
81895;DHT22;71358;45.642;13.758;2023-08-12T04:38:01;26.40;57.50
81895;DHT22;71358;45.642;13.758;2023-08-12T04:40:45;26.40;57.60
81895;DHT22;71358;45.642;13.758;2023-08-12T04:43:31;26.40;57.60
81895;DHT22;71358;45.642;13.758;2023-08-12T04:46:17;26.40;57.60
81895;DHT22;71358;45.642;13.758;2023-08-12T04:49:02;26.40;57.50
81895;DHT22;71358;45.642;13.758;2023-08-12T04:51:47;26.40;57.50
81895;DHT22;71358;45.642;13.758;2023-08-12T04:54:31;26.40;57.50
81895;DHT22;71358;45.642;13.758;2023-08-12T04:57:16;26.40;57.40
81895;DHT22;71358;45.642;13.758;2023-08-12T05:00:00;26.40;57.40
81895;DHT22;71358;45.642;13.758;2023-08-12T05:02:46;26.40;57.40
81895;DHT22;71358;45.642;13.758;2023-08-12T05:05:31;26.40;57.50
81895;DHT22;71358;45.642;13.758;2023-08-12T05:08:15;26.40;57.40
81895;DHT22;71358;45.642;13.758;2023-08-12T05:11:00;26.40;57.40
81895;DHT22;71358;45.642;13.758;2023-08-12T05:13:44;26.40;57.40
81895;DHT22;71358;45.642;13.758;2023-08-12T05:16:29;26.40;57.40
81895;DHT22;71358;45.642;13.758;2023-08-12T05:19:14;26.40;57.40
81895;DHT22;71358;45.642;13.758;2023-08-12T05:21:59;26.40;57.40
81895;DHT22;71358;45.642;13.758;2023-08-12T05:24:44;26.40;57.40
81895;DHT22;71358;45.642;13.758;2023-08-12T05:27:29;26.40;57.40
81895;DHT22;71358;45.642;13.758;2023-08-12T05:30:13;26.40;57.50
81895;DHT22;71358;45.642;13.758;2023-08-12T05:32:58;26.40;57.50
81895;DHT22;71358;45.642;13.758;2023-08-12T05:35:43;26.40;57.60
81895;DHT22;71358;45.642;13.758;2023-08-12T05:38:27;26.40;57.70
81895;DHT22;71358;45.642;13.758;2023-08-12T05:41:12;26.40;57.70
81895;DHT22;71358;45.642;13.758;2023-08-12T05:43:56;26.40;57.70
81895;DHT22;71358;45.642;13.758;2023-08-12T05:46:41;26.40;57.70
81895;DHT22;71358;45.642;13.758;2023-08-12T05:49:25;26.40;57.70
81895;DHT22;71358;45.642;13.758;2023-08-12T05:52:10;26.40;57.70
81895;DHT22;71358;45.642;13.758;2023-08-12T05:54:54;26.40;57.70
81895;DHT22;71358;45.642;13.758;2023-08-12T05:57:39;26.40;57.60
81895;DHT22;71358;45.642;13.758;2023-08-12T06:00:23;26.40;57.60
81895;DHT22;71358;45.642;13.758;2023-08-12T06:03:08;26.40;57.60
81895;DHT22;71358;45.642;13.758;2023-08-12T06:05:53;26.40;57.60
81895;DHT22;71358;45.642;13.758;2023-08-12T06:08:37;26.40;57.50
81895;DHT22;71358;45.642;13.758;2023-08-12T06:11:22;26.40;57.50
81895;DHT22;71358;45.642;13.758;2023-08-12T06:14:06;26.40;57.60
81895;DHT22;71358;45.642;13.758;2023-08-12T06:16:51;26.40;57.60
81895;DHT22;71358;45.642;13.758;2023-08-12T06:19:35;26.40;57.60
81895;DHT22;71358;45.642;13.758;2023-08-12T06:22:20;26.40;57.60
81895;DHT22;71358;45.642;13.758;2023-08-12T06:25:05;26.40;57.60
81895;DHT22;71358;45.642;13.758;2023-08-12T06:27:49;26.40;57.60
81895;DHT22;71358;45.642;13.758;2023-08-12T06:30:34;26.40;57.70
81895;DHT22;71358;45.642;13.758;2023-08-12T06:33:18;26.30;57.60
81895;DHT22;71358;45.642;13.758;2023-08-12T06:36:03;26.40;57.70
81895;DHT22;71358;45.642;13.758;2023-08-12T06:38:47;26.40;57.70
81895;DHT22;71358;45.642;13.758;2023-08-12T06:41:32;26.40;57.60
81895;DHT22;71358;45.642;13.758;2023-08-12T06:44:17;26.40;57.60
81895;DHT22;71358;45.642;13.758;2023-08-12T06:47:01;26.40;57.70
81895;DHT22;71358;45.642;13.758;2023-08-12T06:49:46;26.40;57.60
81895;DHT22;71358;45.642;13.758;2023-08-12T06:52:31;26.40;57.60
81895;DHT22;71358;45.642;13.758;2023-08-12T06:55:15;26.40;57.60
81895;DHT22;71358;45.642;13.758;2023-08-12T06:58:00;26.40;57.50
81895;DHT22;71358;45.642;13.758;2023-08-12T07:00:45;26.40;57.50
81895;DHT22;71358;45.642;13.758;2023-08-12T07:03:29;26.40;57.50
81895;DHT22;71358;45.642;13.758;2023-08-12T07:06:14;26.40;57.50
81895;DHT22;71358;45.642;13.758;2023-08-12T07:08:59;26.40;57.50
81895;DHT22;71358;45.642;13.758;2023-08-12T07:11:43;26.40;57.50
81895;DHT22;71358;45.642;13.758;2023-08-12T07:14:28;26.40;57.50
81895;DHT22;71358;45.642;13.758;2023-08-12T07:17:13;26.40;57.40
81895;DHT22;71358;45.642;13.758;2023-08-12T07:19:57;26.40;57.40
81895;DHT22;71358;45.642;13.758;2023-08-12T07:22:42;26.40;57.40
81895;DHT22;71358;45.642;13.758;2023-08-12T07:25:27;26.40;57.50
81895;DHT22;71358;45.642;13.758;2023-08-12T07:28:11;26.50;57.70
81895;DHT22;71358;45.642;13.758;2023-08-12T07:30:56;26.50;57.60
81895;DHT22;71358;45.642;13.758;2023-08-12T07:33:40;26.50;57.50
81895;DHT22;71358;45.642;13.758;2023-08-12T07:36:25;26.60;57.60
81895;DHT22;71358;45.642;13.758;2023-08-12T07:39:10;26.60;57.50
81895;DHT22;71358;45.642;13.758;2023-08-12T07:41:54;26.60;57.30
81895;DHT22;71358;45.642;13.758;2023-08-12T07:44:39;26.70;57.30
81895;DHT22;71358;45.642;13.758;2023-08-12T07:47:23;26.70;57.30
81895;DHT22;71358;45.642;13.758;2023-08-12T07:50:08;26.70;57.30
81895;DHT22;71358;45.642;13.758;2023-08-12T07:52:52;26.70;57.30
81895;DHT22;71358;45.642;13.758;2023-08-12T07:55:37;26.70;57.30
81895;DHT22;71358;45.642;13.758;2023-08-12T07:58:23;26.70;57.50
81895;DHT22;71358;45.642;13.758;2023-08-12T08:01:07;26.60;57.50
81895;DHT22;71358;45.642;13.758;2023-08-12T08:03:53;26.60;57.50
81895;DHT22;71358;45.642;13.758;2023-08-12T08:06:37;26.60;57.50
81895;DHT22;71358;45.642;13.758;2023-08-12T08:09:22;26.60;57.40
81895;DHT22;71358;45.642;13.758;2023-08-12T08:12:08;26.60;57.40
81895;DHT22;71358;45.642;13.758;2023-08-12T08:14:53;26.60;57.40
81895;DHT22;71358;45.642;13.758;2023-08-12T08:17:37;26.60;57.50
81895;DHT22;71358;45.642;13.758;2023-08-12T08:20:22;26.60;58.30
81895;DHT22;71358;45.642;13.758;2023-08-12T08:23:07;26.60;57.90
81895;DHT22;71358;45.642;13.758;2023-08-12T08:25:52;26.60;58.00
81895;DHT22;71358;45.642;13.758;2023-08-12T08:28:37;26.60;58.00
81895;DHT22;71358;45.642;13.758;2023-08-12T08:31:22;26.70;58.40
81895;DHT22;71358;45.642;13.758;2023-08-12T08:34:07;26.70;58.70
81895;DHT22;71358;45.642;13.758;2023-08-12T08:36:51;26.70;58.70
81895;DHT22;71358;45.642;13.758;2023-08-12T08:39:36;26.70;58.70
81895;DHT22;71358;45.642;13.758;2023-08-12T08:42:21;26.80;58.70
81895;DHT22;71358;45.642;13.758;2023-08-12T08:45:12;26.80;59.10
81895;DHT22;71358;45.642;13.758;2023-08-12T08:47:57;26.80;59.60
81895;DHT22;71358;45.642;13.758;2023-08-12T08:50:42;26.80;59.90
81895;DHT22;71358;45.642;13.758;2023-08-12T08:53:30;26.80;60.10
81895;DHT22;71358;45.642;13.758;2023-08-12T08:56:14;26.80;60.50
81895;DHT22;71358;45.642;13.758;2023-08-12T08:58:59;26.80;61.10
81895;DHT22;71358;45.642;13.758;2023-08-12T09:01:45;26.80;61.80
81895;DHT22;71358;45.642;13.758;2023-08-12T09:04:32;26.80;62.00
81895;DHT22;71358;45.642;13.758;2023-08-12T09:07:17;26.80;62.60
81895;DHT22;71358;45.642;13.758;2023-08-12T09:10:03;26.80;63.00
81895;DHT22;71358;45.642;13.758;2023-08-12T09:12:48;26.70;63.40
81895;DHT22;71358;45.642;13.758;2023-08-12T09:15:32;26.70;64.00
81895;DHT22;71358;45.642;13.758;2023-08-12T09:18:17;26.80;64.20
81895;DHT22;71358;45.642;13.758;2023-08-12T09:21:02;26.80;64.30
81895;DHT22;71358;45.642;13.758;2023-08-12T09:23:47;26.80;64.70
81895;DHT22;71358;45.642;13.758;2023-08-12T09:26:31;26.90;65.40
81895;DHT22;71358;45.642;13.758;2023-08-12T09:29:16;26.90;65.80
81895;DHT22;71358;45.642;13.758;2023-08-12T09:34:55;27.00;66.00
81895;DHT22;71358;45.642;13.758;2023-08-12T09:37:41;27.00;65.50
81895;DHT22;71358;45.642;13.758;2023-08-12T09:40:25;27.00;65.40
81895;DHT22;71358;45.642;13.758;2023-08-12T09:43:10;27.00;65.10
81895;DHT22;71358;45.642;13.758;2023-08-12T09:45:56;27.00;64.80
81895;DHT22;71358;45.642;13.758;2023-08-12T09:48:44;27.00;64.60
81895;DHT22;71358;45.642;13.758;2023-08-12T09:51:35;27.00;64.30
81895;DHT22;71358;45.642;13.758;2023-08-12T09:54:19;27.10;64.10
81895;DHT22;71358;45.642;13.758;2023-08-12T09:57:08;27.10;63.90
81895;DHT22;71358;45.642;13.758;2023-08-12T09:59:53;27.10;63.70
81895;DHT22;71358;45.642;13.758;2023-08-12T10:02:39;27.10;63.30
81895;DHT22;71358;45.642;13.758;2023-08-12T10:05:28;27.10;62.80
81895;DHT22;71358;45.642;13.758;2023-08-12T10:08:15;27.10;62.50
81895;DHT22;71358;45.642;13.758;2023-08-12T10:11:00;27.10;62.60
81895;DHT22;71358;45.642;13.758;2023-08-12T10:13:45;27.00;62.60
81895;DHT22;71358;45.642;13.758;2023-08-12T10:16:31;27.00;62.30
81895;DHT22;71358;45.642;13.758;2023-08-12T10:19:17;27.00;62.40
81895;DHT22;71358;45.642;13.758;2023-08-12T10:22:03;27.00;61.90
81895;DHT22;71358;45.642;13.758;2023-08-12T10:24:48;27.00;61.70
81895;DHT22;71358;45.642;13.758;2023-08-12T10:27:33;26.90;61.80
81895;DHT22;71358;45.642;13.758;2023-08-12T10:30:20;26.90;61.80
81895;DHT22;71358;45.642;13.758;2023-08-12T10:33:05;26.90;61.80
81895;DHT22;71358;45.642;13.758;2023-08-12T10:35:50;26.90;61.90
81895;DHT22;71358;45.642;13.758;2023-08-12T10:38:35;26.90;62.20
81895;DHT22;71358;45.642;13.758;2023-08-12T10:41:21;26.90;62.50
81895;DHT22;71358;45.642;13.758;2023-08-12T10:44:06;26.90;62.80
81895;DHT22;71358;45.642;13.758;2023-08-12T10:46:51;26.90;63.00
81895;DHT22;71358;45.642;13.758;2023-08-12T10:49:44;26.80;63.40
81895;DHT22;71358;45.642;13.758;2023-08-12T10:52:34;26.80;63.50
81895;DHT22;71358;45.642;13.758;2023-08-12T10:58:08;26.80;63.10
81895;DHT22;71358;45.642;13.758;2023-08-12T11:00:57;26.80;63.10
81895;DHT22;71358;45.642;13.758;2023-08-12T11:03:43;26.80;62.90
81895;DHT22;71358;45.642;13.758;2023-08-12T11:06:27;26.80;63.60
81895;DHT22;71358;45.642;13.758;2023-08-12T11:09:12;26.80;62.70
81895;DHT22;71358;45.642;13.758;2023-08-12T11:11:58;26.80;63.50
81895;DHT22;71358;45.642;13.758;2023-08-12T11:14:48;26.80;62.40
81895;DHT22;71358;45.642;13.758;2023-08-12T11:17:38;26.80;62.20
81895;DHT22;71358;45.642;13.758;2023-08-12T11:20:23;26.80;62.20
81895;DHT22;71358;45.642;13.758;2023-08-12T11:23:09;26.90;62.80
81895;DHT22;71358;45.642;13.758;2023-08-12T11:25:53;26.90;63.00
81895;DHT22;71358;45.642;13.758;2023-08-12T11:28:38;26.90;62.70
81895;DHT22;71358;45.642;13.758;2023-08-12T11:31:22;26.90;62.40
81895;DHT22;71358;45.642;13.758;2023-08-12T11:34:07;26.90;62.10
81895;DHT22;71358;45.642;13.758;2023-08-12T11:36:52;26.90;61.90
81895;DHT22;71358;45.642;13.758;2023-08-12T11:39:37;26.90;61.60
81895;DHT22;71358;45.642;13.758;2023-08-12T11:42:22;26.80;61.30
81895;DHT22;71358;45.642;13.758;2023-08-12T11:45:07;26.90;61.30
81895;DHT22;71358;45.642;13.758;2023-08-12T11:47:53;26.90;61.30
81895;DHT22;71358;45.642;13.758;2023-08-12T11:50:37;26.90;61.30
81895;DHT22;71358;45.642;13.758;2023-08-12T11:53:22;26.90;61.30
81895;DHT22;71358;45.642;13.758;2023-08-12T11:56:07;26.90;61.40
81895;DHT22;71358;45.642;13.758;2023-08-12T11:58:52;26.90;61.60
81895;DHT22;71358;45.642;13.758;2023-08-12T12:01:40;26.90;61.70
81895;DHT22;71358;45.642;13.758;2023-08-12T12:04:24;26.90;61.70
81895;DHT22;71358;45.642;13.758;2023-08-12T12:07:24;26.90;61.80
81895;DHT22;71358;45.642;13.758;2023-08-12T12:10:13;26.90;61.80
81895;DHT22;71358;45.642;13.758;2023-08-12T12:12:59;26.90;61.80
81895;DHT22;71358;45.642;13.758;2023-08-12T12:15:44;26.90;61.80
81895;DHT22;71358;45.642;13.758;2023-08-12T12:18:28;26.90;61.70
81895;DHT22;71358;45.642;13.758;2023-08-12T12:21:20;26.90;61.40
81895;DHT22;71358;45.642;13.758;2023-08-12T12:24:05;26.90;61.20
81895;DHT22;71358;45.642;13.758;2023-08-12T12:26:50;26.90;61.00
81895;DHT22;71358;45.642;13.758;2023-08-12T12:29:34;26.90;60.90
81895;DHT22;71358;45.642;13.758;2023-08-12T12:32:19;26.90;60.80
81895;DHT22;71358;45.642;13.758;2023-08-12T12:35:04;26.90;60.70
81895;DHT22;71358;45.642;13.758;2023-08-12T12:37:51;26.90;60.60
81895;DHT22;71358;45.642;13.758;2023-08-12T12:40:35;26.90;60.80
81895;DHT22;71358;45.642;13.758;2023-08-12T12:43:22;26.90;60.90
81895;DHT22;71358;45.642;13.758;2023-08-12T12:46:06;26.90;61.10
81895;DHT22;71358;45.642;13.758;2023-08-12T12:48:51;26.90;61.40
81895;DHT22;71358;45.642;13.758;2023-08-12T12:51:36;26.90;61.40
81895;DHT22;71358;45.642;13.758;2023-08-12T12:54:21;26.90;61.40
81895;DHT22;71358;45.642;13.758;2023-08-12T12:57:05;26.90;61.40
81895;DHT22;71358;45.642;13.758;2023-08-12T12:59:50;26.90;61.40
81895;DHT22;71358;45.642;13.758;2023-08-12T13:02:35;26.90;61.50
81895;DHT22;71358;45.642;13.758;2023-08-12T13:05:19;26.90;61.60
81895;DHT22;71358;45.642;13.758;2023-08-12T13:08:04;27.00;61.60
81895;DHT22;71358;45.642;13.758;2023-08-12T13:10:49;27.00;61.50
81895;DHT22;71358;45.642;13.758;2023-08-12T13:13:34;27.00;61.40
81895;DHT22;71358;45.642;13.758;2023-08-12T13:16:18;27.00;61.30
81895;DHT22;71358;45.642;13.758;2023-08-12T13:19:03;27.00;61.40
81895;DHT22;71358;45.642;13.758;2023-08-12T13:21:48;27.00;61.40
81895;DHT22;71358;45.642;13.758;2023-08-12T13:24:32;27.00;61.40
81895;DHT22;71358;45.642;13.758;2023-08-12T13:27:17;27.00;61.30
81895;DHT22;71358;45.642;13.758;2023-08-12T13:30:01;27.00;61.30
81895;DHT22;71358;45.642;13.758;2023-08-12T13:32:46;27.00;61.30
81895;DHT22;71358;45.642;13.758;2023-08-12T13:35:30;27.00;61.30
81895;DHT22;71358;45.642;13.758;2023-08-12T13:38:15;27.00;61.20
81895;DHT22;71358;45.642;13.758;2023-08-12T13:41:00;27.00;61.20
81895;DHT22;71358;45.642;13.758;2023-08-12T13:43:45;27.00;61.20
81895;DHT22;71358;45.642;13.758;2023-08-12T13:46:29;27.00;61.20
81895;DHT22;71358;45.642;13.758;2023-08-12T13:49:14;27.00;61.20
81895;DHT22;71358;45.642;13.758;2023-08-12T13:51:58;27.00;61.20
81895;DHT22;71358;45.642;13.758;2023-08-12T13:54:45;27.00;61.20
81895;DHT22;71358;45.642;13.758;2023-08-12T13:57:30;27.00;61.20
81895;DHT22;71358;45.642;13.758;2023-08-12T14:00:15;27.00;61.20
81895;DHT22;71358;45.642;13.758;2023-08-12T14:03:00;27.00;61.00
81895;DHT22;71358;45.642;13.758;2023-08-12T14:05:45;27.00;61.00
81895;DHT22;71358;45.642;13.758;2023-08-12T14:08:30;27.00;61.00
81895;DHT22;71358;45.642;13.758;2023-08-12T14:11:14;27.00;61.00
81895;DHT22;71358;45.642;13.758;2023-08-12T14:13:59;27.00;61.00
81895;DHT22;71358;45.642;13.758;2023-08-12T14:16:43;27.00;61.00
81895;DHT22;71358;45.642;13.758;2023-08-12T14:19:28;27.00;61.00
81895;DHT22;71358;45.642;13.758;2023-08-12T14:22:12;27.00;61.00
81895;DHT22;71358;45.642;13.758;2023-08-12T14:24:57;27.00;61.00
81895;DHT22;71358;45.642;13.758;2023-08-12T14:27:42;27.00;61.00
81895;DHT22;71358;45.642;13.758;2023-08-12T14:30:26;27.00;60.90
81895;DHT22;71358;45.642;13.758;2023-08-12T14:33:11;27.00;60.90
81895;DHT22;71358;45.642;13.758;2023-08-12T14:35:59;27.00;60.90
81895;DHT22;71358;45.642;13.758;2023-08-12T14:38:43;27.00;60.90
81895;DHT22;71358;45.642;13.758;2023-08-12T14:41:28;27.00;60.90
81895;DHT22;71358;45.642;13.758;2023-08-12T14:44:14;27.00;60.90
81895;DHT22;71358;45.642;13.758;2023-08-12T14:46:58;27.00;60.90
81895;DHT22;71358;45.642;13.758;2023-08-12T14:49:43;27.00;61.00
81895;DHT22;71358;45.642;13.758;2023-08-12T14:52:27;27.00;61.00
81895;DHT22;71358;45.642;13.758;2023-08-12T14:55:12;27.00;60.90
81895;DHT22;71358;45.642;13.758;2023-08-12T14:57:57;27.00;60.90
81895;DHT22;71358;45.642;13.758;2023-08-12T15:00:41;27.00;60.80
81895;DHT22;71358;45.642;13.758;2023-08-12T15:03:26;27.00;60.80
81895;DHT22;71358;45.642;13.758;2023-08-12T15:06:11;27.00;60.80
81895;DHT22;71358;45.642;13.758;2023-08-12T15:08:55;27.10;60.80
81895;DHT22;71358;45.642;13.758;2023-08-12T15:11:40;27.10;60.80
81895;DHT22;71358;45.642;13.758;2023-08-12T15:14:25;27.10;60.80
81895;DHT22;71358;45.642;13.758;2023-08-12T15:17:09;27.10;60.80
81895;DHT22;71358;45.642;13.758;2023-08-12T15:19:54;27.10;60.70
81895;DHT22;71358;45.642;13.758;2023-08-12T15:22:38;27.10;60.60
81895;DHT22;71358;45.642;13.758;2023-08-12T15:25:23;27.10;60.60
81895;DHT22;71358;45.642;13.758;2023-08-12T15:28:08;27.10;60.60
81895;DHT22;71358;45.642;13.758;2023-08-12T15:30:52;27.10;60.70
81895;DHT22;71358;45.642;13.758;2023-08-12T15:33:37;27.10;60.90
81895;DHT22;71358;45.642;13.758;2023-08-12T15:36:21;27.10;60.80
81895;DHT22;71358;45.642;13.758;2023-08-12T15:39:16;27.10;60.80
81895;DHT22;71358;45.642;13.758;2023-08-12T15:42:06;27.10;60.70
81895;DHT22;71358;45.642;13.758;2023-08-12T15:44:51;27.10;60.60
81895;DHT22;71358;45.642;13.758;2023-08-12T15:47:35;27.10;60.60
81895;DHT22;71358;45.642;13.758;2023-08-12T15:50:20;27.10;60.60
81895;DHT22;71358;45.642;13.758;2023-08-12T15:53:05;27.10;60.60
81895;DHT22;71358;45.642;13.758;2023-08-12T15:55:49;27.10;60.60
81895;DHT22;71358;45.642;13.758;2023-08-12T15:58:34;27.10;60.60
81895;DHT22;71358;45.642;13.758;2023-08-12T16:01:18;27.10;60.60
81895;DHT22;71358;45.642;13.758;2023-08-12T16:04:06;27.10;60.50
81895;DHT22;71358;45.642;13.758;2023-08-12T16:06:50;27.10;60.50
81895;DHT22;71358;45.642;13.758;2023-08-12T16:09:35;27.10;60.60
81895;DHT22;71358;45.642;13.758;2023-08-12T16:12:20;27.10;60.60
81895;DHT22;71358;45.642;13.758;2023-08-12T16:15:04;27.20;60.70
81895;DHT22;71358;45.642;13.758;2023-08-12T16:17:49;27.20;60.60
81895;DHT22;71358;45.642;13.758;2023-08-12T16:20:34;27.20;60.50
81895;DHT22;71358;45.642;13.758;2023-08-12T16:23:18;27.20;60.30
81895;DHT22;71358;45.642;13.758;2023-08-12T16:26:03;27.30;60.40
81895;DHT22;71358;45.642;13.758;2023-08-12T16:28:48;27.30;60.40
81895;DHT22;71358;45.642;13.758;2023-08-12T16:31:32;27.20;60.40
81895;DHT22;71358;45.642;13.758;2023-08-12T16:34:17;27.20;60.40
81895;DHT22;71358;45.642;13.758;2023-08-12T16:37:01;27.20;60.40
81895;DHT22;71358;45.642;13.758;2023-08-12T16:39:46;27.20;60.30
81895;DHT22;71358;45.642;13.758;2023-08-12T16:42:31;27.20;60.30
81895;DHT22;71358;45.642;13.758;2023-08-12T16:45:16;27.20;60.40
81895;DHT22;71358;45.642;13.758;2023-08-12T16:48:01;27.20;60.30
81895;DHT22;71358;45.642;13.758;2023-08-12T16:50:45;27.20;60.40
81895;DHT22;71358;45.642;13.758;2023-08-12T16:53:30;27.20;60.40
81895;DHT22;71358;45.642;13.758;2023-08-12T16:56:14;27.20;60.40
81895;DHT22;71358;45.642;13.758;2023-08-12T16:58:59;27.20;60.40
81895;DHT22;71358;45.642;13.758;2023-08-12T17:01:44;27.20;60.40
81895;DHT22;71358;45.642;13.758;2023-08-12T17:04:31;27.20;60.50
81895;DHT22;71358;45.642;13.758;2023-08-12T17:07:16;27.20;60.50
81895;DHT22;71358;45.642;13.758;2023-08-12T17:10:00;27.20;60.30
81895;DHT22;71358;45.642;13.758;2023-08-12T17:12:45;27.20;60.10
81895;DHT22;71358;45.642;13.758;2023-08-12T17:15:29;27.30;60.10